Terminal Aerodrome Forecast
Issued by NWS

Home | Current Version | Previous Version | Text Only | Print | Product List | Glossary On
Versions: 1 2 3 4 5 6 7 8 9 10 11 12 13 14
000
FTUS43 KPAH 222320
TAFCGI
TAF
KCGI 222320Z 2300/2324 22008KT P6SM SKC
     FM230900 23003KT 5SM BR SCT100 BKN250
      TEMPO 2309/2313 BKN100
     FM231500 27005KT P6SM SCT035
     FM231900 29007KT P6SM SCT040=

USA.gov is the U.S. government's official web portal to all federal, state and local government web resources and services.